Time;durP1;ratioP1;P1;durP2;ratioP2;P2;SDS_P1;SDS_P2;PMS_P1;PMS_P2;Temp;Humidity;BMP_temperature;BMP_pressure;BME280_temperature;BME280_humidity;BME280_pressure;Samples;Min_cycle;Max_cycle;Signal;HPM_P1;HPM_P2
2022/03/02 00:00:46;;;;;;;26.25;17.92;;;8.20;93.20;;;;;;5077614;28;20052;-41
2022/03/02 00:03:12;;;;;;;25.23;16.95;;;8.20;93.50;;;;;;5065649;28;20155;-41
2022/03/02 00:05:37;;;;;;;21.85;14.70;;;8.20;93.20;;;;;;5078342;28;20059;-42
2022/03/02 00:08:03;;;;;;;24.63;15.80;;;8.20;93.30;;;;;;5065647;28;20515;-41
2022/03/02 00:10:30;;;;;;;21.95;14.90;;;8.20;93.30;;;;;;5077054;28;20034;-42
2022/03/02 00:12:55;;;;;;;24.75;15.10;;;8.20;93.30;;;;;;5066206;28;20021;-42
2022/03/02 00:15:21;;;;;;;17.88;12.55;;;8.20;93.30;;;;;;5073804;28;20038;-42
2022/03/02 00:17:47;;;;;;;17.73;12.25;;;8.20;93.40;;;;;;5069148;28;20043;-43
2022/03/02 00:20:13;;;;;;;20.50;13.25;;;8.20;93.40;;;;;;5070905;28;20054;-42
2022/03/02 00:22:39;;;;;;;20.00;12.90;;;8.20;93.40;;;;;;5070741;28;20036;-42
2022/03/02 00:25:08;;;;;;;18.20;12.70;;;8.20;93.40;;;;;;5069283;28;20021;-42
2022/03/02 00:27:35;;;;;;;16.83;12.30;;;8.20;93.40;;;;;;5073562;28;20020;-44
2022/03/02 00:30:00;;;;;;;18.83;12.75;;;8.30;93.50;;;;;;5066698;28;20017;-42
2022/03/02 00:32:26;;;;;;;18.73;12.10;;;8.20;93.50;;;;;;5076662;28;20105;-44
2022/03/02 00:34:52;;;;;;;16.55;12.13;;;8.30;93.50;;;;;;5066666;28;20089;-42
2022/03/02 00:37:17;;;;;;;17.63;12.20;;;8.20;93.50;;;;;;5075523;28;20044;-42
2022/03/02 00:39:43;;;;;;;19.55;12.85;;;8.30;93.50;;;;;;5066032;28;20510;-43
2022/03/02 00:42:10;;;;;;;19.88;13.35;;;8.20;93.60;;;;;;5077033;28;20029;-43
2022/03/02 00:44:36;;;;;;;18.45;12.55;;;8.30;93.60;;;;;;5064515;28;20048;-43
2022/03/02 00:47:06;;;;;;;22.17;13.93;;;8.20;93.60;;;;;;5078018;28;20379;-43
2022/03/02 00:49:33;;;;;;;21.20;13.63;;;8.20;93.50;;;;;;5064925;28;20063;-42
2022/03/02 00:51:59;;;;;;;22.02;13.10;;;8.20;93.60;;;;;;5077433;28;20798;-42
2022/03/02 00:54:25;;;;;;;19.85;12.73;;;8.20;93.90;;;;;;5065781;28;20456;-43
2022/03/02 00:56:50;;;;;;;17.30;12.65;;;8.20;93.70;;;;;;5074624;28;20486;-41
2022/03/02 00:59:16;;;;;;;19.25;14.30;;;8.10;93.70;;;;;;5067509;28;20029;-41
2022/03/02 01:01:43;;;;;;;20.83;13.80;;;8.20;93.70;;;;;;5072353;28;20353;-42
2022/03/02 01:04:09;;;;;;;19.40;12.90;;;8.20;93.70;;;;;;5069357;28;20123;-42
2022/03/02 01:06:35;;;;;;;17.85;12.48;;;8.20;93.80;;;;;;5070032;28;20040;-41
2022/03/02 01:09:01;;;;;;;18.13;13.48;;;8.10;93.80;;;;;;5073337;28;20405;-42
2022/03/02 01:11:27;;;;;;;18.33;13.00;;;8.10;93.90;;;;;;5066066;28;20404;-42
2022/03/02 01:13:52;;;;;;;21.30;13.73;;;8.10;93.90;;;;;;5075848;28;20029;-42
2022/03/02 01:16:18;;;;;;;19.17;13.35;;;8.00;94.00;;;;;;5065422;28;20733;-44
2022/03/02 01:18:44;;;;;;;19.15;13.23;;;8.00;94.00;;;;;;5075959;28;20039;-41
2022/03/02 01:21:10;;;;;;;19.27;13.60;;;8.00;94.10;;;;;;5066117;28;20373;-41
2022/03/02 01:23:35;;;;;;;22.13;14.45;;;8.00;94.20;;;;;;5076719;28;20058;-43
2022/03/02 01:26:01;;;;;;;20.73;14.57;;;7.90;94.30;;;;;;5067054;28;20043;-42
2022/03/02 01:28:26;;;;;;;18.83;13.18;;;7.80;94.40;;;;;;5080467;28;20059;-43
2022/03/02 01:30:52;;;;;;;18.60;13.20;;;7.80;94.50;;;;;;5068855;28;20475;-43
2022/03/02 01:33:18;;;;;;;19.20;13.75;;;7.80;94.50;;;;;;5078951;28;20074;-43
2022/03/02 01:35:43;;;;;;;19.65;13.20;;;7.70;94.60;;;;;;5069075;28;20036;-42
2022/03/02 01:38:09;;;;;;;20.52;13.45;;;7.70;94.60;;;;;;5077505;28;20028;-42
2022/03/02 01:40:35;;;;;;;18.80;13.48;;;7.70;94.70;;;;;;5071163;28;20831;-43
2022/03/02 01:43:00;;;;;;;18.67;13.57;;;7.70;94.70;;;;;;5074926;28;20044;-42
2022/03/02 01:45:26;;;;;;;19.08;14.27;;;7.70;94.70;;;;;;5074542;28;20025;-41
2022/03/02 01:47:52;;;;;;;20.17;14.18;;;7.70;94.70;;;;;;5071719;28;20029;-41
2022/03/02 01:50:18;;;;;;;18.70;13.82;;;7.70;94.60;;;;;;5071736;28;20024;-38
2022/03/02 01:52:44;;;;;;;21.00;14.32;;;7.70;94.50;;;;;;5069998;28;20694;-41
2022/03/02 01:55:12;;;;;;;19.00;13.60;;;7.60;94.60;;;;;;5078519;28;20056;-43
2022/03/02 01:57:39;;;;;;;19.35;13.23;;;7.60;94.60;;;;;;5069439;28;20032;-43
2022/03/02 02:00:08;;;;;;;20.88;13.63;;;7.60;94.60;;;;;;5079778;28;20032;-43
2022/03/02 02:02:34;;;;;;;21.67;15.60;;;7.60;94.70;;;;;;5069074;28;20029;-42
2022/03/02 02:05:00;;;;;;;25.73;16.17;;;7.60;94.70;;;;;;5079852;28;20391;-43
2022/03/02 02:07:27;;;;;;;22.73;15.63;;;7.60;94.70;;;;;;5067457;28;20024;-43
2022/03/02 02:09:55;;;;;;;24.60;16.65;;;7.60;94.70;;;;;;5080994;28;20034;-41
2022/03/02 02:12:20;;;;;;;23.33;17.05;;;7.60;94.80;;;;;;5067420;28;20029;-42
2022/03/02 02:14:46;;;;;;;29.13;18.13;;;7.60;94.80;;;;;;5079800;28;20498;-40
2022/03/02 02:17:11;;;;;;;26.98;17.13;;;7.60;94.90;;;;;;5068335;28;20033;-42
2022/03/02 02:19:37;;;;;;;28.50;18.65;;;7.50;94.90;;;;;;5077926;28;20417;-41
2022/03/02 02:22:03;;;;;;;24.48;17.02;;;7.50;95.00;;;;;;5070314;28;20060;-43
2022/03/02 02:24:28;;;;;;;24.48;16.92;;;7.50;95.00;;;;;;5074650;28;20123;-42
2022/03/02 02:26:55;;;;;;;22.30;16.45;;;7.50;95.10;;;;;;5073265;28;20595;-43
2022/03/02 02:29:22;;;;;;;22.30;15.38;;;7.40;95.20;;;;;;5071314;28;20058;-43
2022/03/02 02:31:47;;;;;;;22.10;16.25;;;7.40;95.20;;;;;;5075599;28;20024;-42
2022/03/02 02:34:15;;;;;;;23.55;16.10;;;7.40;95.30;;;;;;5069642;28;20021;-42
2022/03/02 02:36:42;;;;;;;21.73;15.50;;;7.40;95.30;;;;;;5077090;28;20392;-43
2022/03/02 02:39:09;;;;;;;21.08;14.63;;;7.40;95.40;;;;;;5068429;28;20032;-42
2022/03/02 02:41:34;;;;;;;21.85;14.85;;;7.40;95.40;;;;;;5078029;28;20073;-42
2022/03/02 02:44:00;;;;;;;22.35;15.18;;;7.40;95.50;;;;;;5067816;28;20122;-43
2022/03/02 02:46:26;;;;;;;22.40;15.32;;;7.30;95.40;;;;;;5078121;28;20021;-42
2022/03/02 02:48:51;;;;;;;24.23;15.90;;;7.30;95.40;;;;;;5071310;28;20027;-42
2022/03/02 02:51:17;;;;;;;25.73;17.63;;;7.40;95.50;;;;;;5072933;28;20032;-42
2022/03/02 02:53:42;;;;;;;24.88;17.02;;;7.40;95.40;;;;;;5087606;28;20051;-41
2022/03/02 02:56:08;;;;;;;26.77;16.67;;;7.40;95.40;;;;;;5074624;28;20031;-41
2022/03/02 02:58:33;;;;;;;25.98;16.52;;;7.40;95.40;;;;;;5086654;28;20419;-41
2022/03/02 03:00:59;;;;;;;22.98;15.75;;;7.40;95.30;;;;;;5077193;28;20534;-42
2022/03/02 03:03:24;;;;;;;27.40;17.17;;;7.40;95.30;;;;;;5083201;28;20051;-39
2022/03/02 03:05:52;;;;;;;22.67;16.25;;;7.40;95.30;;;;;;5079910;28;20067;-41
2022/03/02 03:08:17;;;;;;;22.98;16.40;;;7.40;95.30;;;;;;5081984;28;20144;-42
2022/03/02 03:10:45;;;;;;;24.60;17.23;;;7.40;95.40;;;;;;5081936;28;20102;-42
2022/03/02 03:13:11;;;;;;;24.33;16.77;;;7.40;95.50;;;;;;5079196;28;20030;-42
2022/03/02 03:15:37;;;;;;;25.95;16.55;;;7.50;95.50;;;;;;5084332;28;20016;-40
2022/03/02 03:18:04;;;;;;;23.40;15.95;;;7.50;95.50;;;;;;5076802;28;20024;-41
2022/03/02 03:20:31;;;;;;;23.70;15.00;;;7.50;95.40;;;;;;5085569;28;20017;-40
2022/03/02 03:22:57;;;;;;;27.73;15.68;;;7.40;95.40;;;;;;5075982;28;20032;-42
2022/03/02 03:25:24;;;;;;;23.52;15.50;;;7.40;95.40;;;;;;5084414;28;20035;-41
2022/03/02 03:27:50;;;;;;;21.88;14.98;;;7.40;95.40;;;;;;5075045;28;20122;-41
2022/03/02 03:30:17;;;;;;;19.95;14.85;;;7.40;95.40;;;;;;5086811;28;20131;-42
2022/03/02 03:32:43;;;;;;;20.42;14.18;;;7.30;95.40;;;;;;5073155;28;20023;-42
2022/03/02 03:35:10;;;;;;;23.88;15.35;;;7.30;95.50;;;;;;5086759;28;20028;-42
2022/03/02 03:37:36;;;;;;;22.80;14.52;;;7.30;95.50;;;;;;5073962;28;20033;-42
2022/03/02 03:40:04;;;;;;;19.27;13.88;;;7.20;95.60;;;;;;5086029;28;20024;-42
2022/03/02 03:42:29;;;;;;;20.58;13.80;;;7.10;95.60;;;;;;5074672;28;20482;-42
2022/03/02 03:44:55;;;;;;;20.23;14.45;;;7.10;95.60;;;;;;5085253;28;20031;-42
2022/03/02 03:47:20;;;;;;;20.58;14.40;;;7.00;95.60;;;;;;5076118;28;20418;-40
2022/03/02 03:49:46;;;;;;;22.65;15.07;;;7.00;95.60;;;;;;5081883;28;20097;-41
2022/03/02 03:52:11;;;;;;;22.48;14.48;;;6.90;95.60;;;;;;5079658;28;20028;-43
2022/03/02 03:54:37;;;;;;;19.42;14.02;;;6.90;95.70;;;;;;5078159;28;20135;-41
2022/03/02 03:57:05;;;;;;;21.85;14.63;;;6.80;95.60;;;;;;5082917;28;20554;-42
2022/03/02 03:59:30;;;;;;;21.65;15.48;;;6.80;95.60;;;;;;5076852;28;20361;-42
2022/03/02 04:01:56;;;;;;;21.55;14.50;;;6.80;95.70;;;;;;5084631;28;20031;-43
2022/03/02 04:04:22;;;;;;;21.23;15.10;;;6.70;95.70;;;;;;5074428;28;20059;-41
2022/03/02 04:06:47;;;;;;;24.60;15.02;;;6.70;95.80;;;;;;5084880;28;20419;-42
2022/03/02 04:09:13;;;;;;;20.65;15.07;;;6.60;96.10;;;;;;5075159;28;20501;-42
2022/03/02 04:11:38;;;;;;;20.52;15.30;;;6.60;95.90;;;;;;5086432;28;20555;-40
2022/03/02 04:14:05;;;;;;;20.98;14.73;;;6.60;95.90;;;;;;5072567;28;20034;-40
2022/03/02 04:16:30;;;;;;;22.42;15.75;;;6.50;95.90;;;;;;5085353;28;20030;-38
2022/03/02 04:18:56;;;;;;;23.52;16.02;;;6.60;96.00;;;;;;5073063;28;20036;-38
2022/03/02 04:21:21;;;;;;;22.52;14.82;;;6.50;96.10;;;;;;5085211;28;20019;-38
2022/03/02 04:23:47;;;;;;;24.13;15.82;;;6.50;96.10;;;;;;5075224;28;20560;-41
2022/03/02 04:26:13;;;;;;;23.38;15.48;;;6.50;96.20;;;;;;5083555;28;20020;-42
2022/03/02 04:28:39;;;;;;;22.17;15.43;;;6.40;96.30;;;;;;5077175;28;20025;-40
2022/03/02 04:31:04;;;;;;;24.90;15.32;;;6.40;96.40;;;;;;5080993;28;20438;-41
2022/03/02 04:33:30;;;;;;;23.00;16.25;;;6.30;96.50;;;;;;5080298;28;20020;-42
2022/03/02 04:35:56;;;;;;;25.48;16.50;;;6.30;96.60;;;;;;5077599;28;20020;-38
2022/03/02 04:38:22;;;;;;;25.45;17.25;;;6.20;96.70;;;;;;5082759;28;20459;-38
2022/03/02 04:40:47;;;;;;;26.77;15.68;;;6.20;96.80;;;;;;5075327;28;20072;-41
2022/03/02 04:43:13;;;;;;;21.88;16.10;;;6.20;96.80;;;;;;5083258;28;20034;-41
2022/03/02 04:45:38;;;;;;;26.00;16.15;;;6.20;96.90;;;;;;5074457;28;20020;-42
2022/03/02 04:48:05;;;;;;;25.77;17.20;;;6.20;96.90;;;;;;5084759;28;20093;-43
2022/03/02 04:50:31;;;;;;;26.30;17.15;;;6.20;97.00;;;;;;5072498;28;20479;-44
2022/03/02 04:52:57;;;;;;;24.88;16.95;;;6.10;97.00;;;;;;5085752;28;20032;-41
2022/03/02 04:55:23;;;;;;;27.60;18.17;;;6.10;97.00;;;;;;5071651;28;20139;-42
2022/03/02 04:57:51;;;;;;;24.23;17.30;;;6.10;97.10;;;;;;5084362;28;20039;-42
2022/03/02 05:00:36;;;;;;;27.75;18.02;;;6.10;97.10;;;;;;5072579;28;20113;-41
2022/03/02 05:03:03;;;;;;;26.85;17.73;;;6.10;97.10;;;;;;5088779;28;20043;-41
2022/03/02 05:05:32;;;;;;;31.40;18.88;;;6.10;97.10;;;;;;5075949;28;20027;-44
2022/03/02 05:07:58;;;;;;;24.88;17.65;;;6.10;97.10;;;;;;5089790;28;20043;-43
2022/03/02 05:10:24;;;;;;;27.75;18.13;;;6.10;97.20;;;;;;5077196;28;20036;-42
2022/03/02 05:12:50;;;;;;;26.17;17.42;;;6.00;97.20;;;;;;5088377;28;20028;-40
2022/03/02 05:15:17;;;;;;;27.20;17.67;;;6.00;97.20;;;;;;5080534;28;20052;-41
2022/03/02 05:17:44;;;;;;;26.42;16.77;;;6.00;97.20;;;;;;5084569;28;20043;-40
2022/03/02 05:20:11;;;;;;;26.73;18.20;;;6.00;97.30;;;;;;5082944;28;20108;-42
2022/03/02 05:22:36;;;;;;;22.25;16.15;;;5.90;97.30;;;;;;5082879;28;20044;-42
2022/03/02 05:25:05;;;;;;;23.60;16.00;;;5.90;97.30;;;;;;5084480;28;20059;-42
2022/03/02 05:27:30;;;;;;;27.23;17.17;;;5.80;97.40;;;;;;5080338;28;20028;-42
2022/03/02 05:29:56;;;;;;;26.42;17.13;;;5.80;97.70;;;;;;5087299;28;20078;-41
2022/03/02 05:32:22;;;;;;;23.92;16.58;;;5.70;97.50;;;;;;5076406;28;20669;-43
2022/03/02 05:34:47;;;;;;;23.73;16.42;;;5.70;97.50;;;;;;5088044;28;20119;-43
2022/03/02 05:37:13;;;;;;;22.85;16.98;;;5.70;97.50;;;;;;5077560;28;20221;-42
2022/03/02 05:39:39;;;;;;;25.08;17.85;;;5.60;97.60;;;;;;5088032;28;20036;-42
2022/03/02 05:42:05;;;;;;;26.25;17.85;;;5.60;97.60;;;;;;5081646;28;20026;-42
2022/03/02 05:44:31;;;;;;;25.40;18.08;;;5.60;97.70;;;;;;5068381;28;20150;-43
2022/03/02 05:46:57;;;;;;;27.00;17.83;;;5.60;97.80;;;;;;5080221;28;20129;-42
2022/03/02 05:49:23;;;;;;;27.02;17.80;;;5.50;97.90;;;;;;5068250;28;20046;-42
2022/03/02 05:51:48;;;;;;;23.73;16.48;;;5.50;97.90;;;;;;5079687;28;20377;-42
2022/03/02 05:54:14;;;;;;;25.30;16.92;;;5.50;97.90;;;;;;5067984;28;20060;-42
2022/03/02 05:56:40;;;;;;;23.27;15.90;;;5.40;98.00;;;;;;5075844;28;20031;-41
2022/03/02 05:59:10;;;;;;;21.70;15.10;;;5.40;98.00;;;;;;5070972;28;20060;-43
2022/03/02 06:01:37;;;;;;;25.60;16.67;;;5.40;98.10;;;;;;5073865;28;20028;-41
2022/03/02 06:04:07;;;;;;;27.08;18.35;;;5.30;98.20;;;;;;5073464;28;20067;-44
2022/03/02 06:06:34;;;;;;;25.25;16.42;;;5.30;98.30;;;;;;5069974;28;20062;-43
2022/03/02 06:09:00;;;;;;;24.10;16.30;;;5.30;98.30;;;;;;5074467;28;20063;-43
2022/03/02 06:11:26;;;;;;;22.80;15.52;;;5.20;98.30;;;;;;5067897;28;20023;-42
2022/03/02 06:13:52;;;;;;;26.08;16.17;;;5.20;98.30;;;;;;5076314;28;20858;-42
2022/03/02 06:16:18;;;;;;;28.30;17.63;;;5.20;98.40;;;;;;5067735;28;20028;-42
2022/03/02 06:18:44;;;;;;;24.73;16.25;;;5.20;98.50;;;;;;5077574;28;20020;-42
2022/03/02 06:21:25;;;;;;;23.65;16.27;;;5.20;98.60;;;;;;5066667;28;20033;-41
2022/03/02 06:23:53;;;;;;;22.58;14.68;;;5.10;98.50;;;;;;5077871;28;20153;-41
2022/03/02 06:26:19;;;;;;;24.23;15.32;;;5.10;98.50;;;;;;5067143;28;20147;-41
2022/03/02 06:28:45;;;;;;;23.92;16.02;;;5.10;98.60;;;;;;5077613;28;20108;-43
2022/03/02 06:31:13;;;;;;;25.40;15.98;;;5.00;98.60;;;;;;5066548;28;20048;-42
2022/03/02 06:33:39;;;;;;;23.63;16.63;;;5.00;98.80;;;;;;5079018;28;20024;-41
2022/03/02 06:36:05;;;;;;;24.42;16.05;;;5.00;98.80;;;;;;5066662;28;20025;-41
2022/03/02 06:38:31;;;;;;;23.98;16.85;;;4.90;98.90;;;;;;5078530;28;20158;-43
2022/03/02 06:41:11;;;;;;;25.25;16.98;;;4.90;99.00;;;;;;5066965;28;20148;-43
2022/03/02 06:44:00;;;;;;;26.23;15.82;;;4.90;99.10;;;;;;5077142;28;20036;-42
2022/03/02 06:46:47;;;;;;;24.70;16.13;;;4.90;99.00;;;;;;5066350;28;20222;-42
2022/03/02 06:49:26;;;;;;;24.73;16.77;;;4.90;98.90;;;;;;5073304;28;20063;-41
2022/03/02 06:51:58;;;;;;;27.90;17.83;;;5.00;98.90;;;;;;5066923;28;20039;-42
2022/03/02 06:54:30;;;;;;;26.73;17.90;;;5.00;98.90;;;;;;5043458;28;998144;-41
2022/03/02 06:56:59;;;;;;;25.70;17.70;;;5.00;98.90;;;;;;5066284;28;20492;-42
2022/03/02 06:59:39;;;;;;;25.20;16.77;;;5.00;98.80;;;;;;5079350;28;20035;-42
2022/03/02 07:02:06;;;;;;;32.22;18.08;;;5.10;98.90;;;;;;5068126;28;20025;-42
2022/03/02 07:04:39;;;;;;;25.77;16.27;;;5.10;98.90;;;;;;5077946;28;20562;-41
2022/03/02 07:07:05;;;;;;;28.52;16.92;;;5.10;98.90;;;;;;5067218;28;20533;-42
2022/03/02 07:09:32;;;;;;;25.92;17.15;;;5.10;98.90;;;;;;5077788;28;20463;-43
2022/03/02 07:12:03;;;;;;;21.98;15.70;;;5.10;98.90;;;;;;5067763;28;20025;-43
2022/03/02 07:14:31;;;;;;;25.75;17.08;;;5.10;98.90;;;;;;5076336;28;20104;-43
2022/03/02 07:17:02;;;;;;;25.92;17.60;;;5.10;99.00;;;;;;5067751;28;20495;-43
2022/03/02 07:19:28;;;;;;;26.42;17.35;;;5.10;99.00;;;;;;5074602;28;20134;-42
2022/03/02 07:21:55;;;;;;;28.30;17.90;;;5.20;99.00;;;;;;5070487;28;20160;-43
2022/03/02 07:24:22;;;;;;;26.80;18.17;;;5.20;99.10;;;;;;5071005;28;20028;-42
2022/03/02 07:26:57;;;;;;;27.48;19.08;;;5.20;99.10;;;;;;5073433;28;20136;-40
2022/03/02 07:29:26;;;;;;;31.30;19.55;;;5.30;99.10;;;;;;5071518;28;20050;-41
2022/03/02 07:31:54;;;;;;;29.00;18.42;;;5.30;99.10;;;;;;5072918;28;20388;-40
2022/03/02 07:34:20;;;;;;;36.75;22.52;;;5.30;99.20;;;;;;5069657;28;20029;-43
2022/03/02 07:36:46;;;;;;;28.13;20.08;;;5.30;99.20;;;;;;5075953;28;20020;-42
2022/03/02 07:39:12;;;;;;;26.60;19.30;;;5.40;99.50;;;;;;5066551;28;20020;-42
2022/03/02 07:41:37;;;;;;;31.20;20.00;;;5.40;99.20;;;;;;5077113;28;20649;-41
2022/03/02 07:44:04;;;;;;;29.67;19.27;;;5.40;99.20;;;;;;5067440;28;20119;-43
2022/03/02 07:46:30;;;;;;;28.88;19.23;;;5.40;99.20;;;;;;5076102;28;20105;-41
2022/03/02 07:48:57;;;;;;;26.55;18.08;;;5.50;99.30;;;;;;5071614;28;20056;-41
2022/03/02 07:51:24;;;;;;;27.35;17.92;;;5.50;99.20;;;;;;5078356;28;20101;-41
2022/03/02 07:53:51;;;;;;;31.77;19.85;;;5.50;99.20;;;;;;5065451;28;20090;-42
2022/03/02 07:56:18;;;;;;;32.88;19.40;;;5.60;99.20;;;;;;5077864;28;20039;-42
2022/03/02 07:58:45;;;;;;;27.67;18.38;;;5.60;99.20;;;;;;5065801;28;20028;-40
2022/03/02 08:01:16;;;;;;;28.23;19.23;;;5.60;99.10;;;;;;5077613;28;20020;-41
2022/03/02 08:03:43;;;;;;;29.70;19.65;;;5.70;99.10;;;;;;5066531;28;20032;-43
2022/03/02 08:06:09;;;;;;;27.33;17.85;;;5.70;98.90;;;;;;5075229;28;20020;-40
2022/03/02 08:08:36;;;;;;;28.50;18.35;;;5.70;98.80;;;;;;5068005;28;20029;-43
2022/03/02 08:11:04;;;;;;;31.33;19.85;;;5.80;98.80;;;;;;5073035;28;20158;-42
2022/03/02 08:13:31;;;;;;;31.58;20.17;;;5.80;98.70;;;;;;5069527;28;20033;-41
2022/03/02 08:15:57;;;;;;;28.70;19.65;;;5.90;98.50;;;;;;5071362;28;20038;-42
2022/03/02 08:18:23;;;;;;;27.35;18.15;;;5.90;98.40;;;;;;5072495;28;20450;-41
2022/03/02 08:20:50;;;;;;;25.50;17.05;;;5.90;98.30;;;;;;5067620;28;20502;-42
2022/03/02 08:23:19;;;;;;;24.88;16.92;;;6.00;98.30;;;;;;5074671;28;20043;-40
2022/03/02 08:25:49;;;;;;;25.63;17.77;;;6.00;98.20;;;;;;5066562;28;20024;-40
2022/03/02 08:28:16;;;;;;;27.92;17.33;;;6.00;98.00;;;;;;5073315;28;20115;-43
2022/03/02 08:30:42;;;;;;;27.00;18.63;;;6.10;97.80;;;;;;5084379;28;20120;-41
2022/03/02 08:33:11;;;;;;;27.90;19.85;;;6.10;97.50;;;;;;5073760;28;20566;-42
2022/03/02 08:35:39;;;;;;;29.73;19.38;;;6.20;97.30;;;;;;5084135;28;20100;-43
2022/03/02 08:38:04;;;;;;;27.30;17.83;;;6.20;97.00;;;;;;5073584;28;20368;-41
2022/03/02 08:40:30;;;;;;;25.92;18.17;;;6.20;96.90;;;;;;5085485;28;20024;-42
2022/03/02 08:43:00;;;;;;;27.17;16.92;;;6.30;96.90;;;;;;5072682;28;20029;-42
2022/03/02 08:45:26;;;;;;;23.33;16.05;;;6.40;96.90;;;;;;5085616;28;20039;-41
2022/03/02 08:47:53;;;;;;;26.38;16.77;;;6.40;96.80;;;;;;5072884;28;20036;-40
2022/03/02 08:50:19;;;;;;;19.60;14.20;;;6.50;96.80;;;;;;5085366;28;20024;-42
2022/03/02 08:52:44;;;;;;;22.60;15.43;;;6.60;96.80;;;;;;5075476;28;20093;-41
2022/03/02 08:55:10;;;;;;;19.00;14.23;;;6.60;96.90;;;;;;5081952;28;20052;-41
2022/03/02 08:57:41;;;;;;;27.23;17.05;;;6.70;96.50;;;;;;5077568;28;20020;-43
2022/03/02 09:00:08;;;;;;;22.67;16.08;;;6.70;96.10;;;;;;5081392;28;20033;-41
2022/03/02 09:02:36;;;;;;;23.27;15.60;;;6.80;96.00;;;;;;5079008;28;20419;-42
2022/03/02 09:05:04;;;;;;;23.05;15.48;;;6.80;96.00;;;;;;5079205;28;20017;-42
2022/03/02 09:07:30;;;;;;;24.58;15.88;;;6.90;95.90;;;;;;5080709;28;20062;-42
2022/03/02 09:09:57;;;;;;;21.88;14.07;;;6.90;95.70;;;;;;5075862;28;20496;-41
2022/03/02 09:12:26;;;;;;;22.42;14.70;;;7.00;95.60;;;;;;5083496;28;20442;-43
2022/03/02 09:14:52;;;;;;;21.45;14.27;;;7.10;95.50;;;;;;5075367;28;20023;-41
2022/03/02 09:17:22;;;;;;;23.40;14.77;;;7.10;95.50;;;;;;5082906;28;20017;-42
2022/03/02 09:19:52;;;;;;;22.73;15.57;;;7.20;95.20;;;;;;5074272;28;20031;-42
2022/03/02 09:22:21;;;;;;;24.30;14.85;;;7.20;94.90;;;;;;5083235;28;20043;-41
2022/03/02 09:24:46;;;;;;;20.95;15.30;;;7.30;94.70;;;;;;5073233;28;20028;-41
2022/03/02 09:27:13;;;;;;;21.60;13.95;;;7.30;94.60;;;;;;5085144;28;20034;-42
2022/03/02 09:29:42;;;;;;;19.42;12.90;;;7.40;94.50;;;;;;5072849;28;20020;-42
2022/03/02 09:32:09;;;;;;;19.00;13.27;;;7.40;94.50;;;;;;5084180;28;20024;-42
2022/03/02 09:34:45;;;;;;;18.42;13.45;;;7.50;94.50;;;;;;5071733;28;20024;-42
2022/03/02 09:37:13;;;;;;;21.70;14.32;;;7.50;94.50;;;;;;5084878;28;20056;-40
2022/03/02 09:39:38;;;;;;;19.88;13.32;;;7.60;94.30;;;;;;5071949;28;20036;-43
2022/03/02 09:42:10;;;;;;;21.02;13.73;;;7.60;94.20;;;;;;5084777;28;20032;-41
2022/03/02 09:44:43;;;;;;;25.60;15.55;;;7.70;94.20;;;;;;5072228;28;20029;-43
2022/03/02 09:47:14;;;;;;;25.27;16.58;;;7.80;93.90;;;;;;5086440;28;20039;-40
2022/03/02 09:49:46;;;;;;;23.52;15.80;;;7.70;93.40;;;;;;5078240;28;20375;-43
2022/03/02 09:52:16;;;;;;;22.35;14.48;;;7.70;93.40;;;;;;5087017;28;20402;-42
2022/03/02 09:54:45;;;;;;;23.15;15.70;;;7.80;93.50;;;;;;5079487;28;20123;-43
2022/03/02 09:57:11;;;;;;;20.45;13.32;;;7.80;93.60;;;;;;5085736;28;20028;-43
2022/03/02 09:59:39;;;;;;;20.52;13.60;;;7.80;93.70;;;;;;5080280;28;20674;-42
2022/03/02 10:02:08;;;;;;;20.55;14.75;;;7.90;93.70;;;;;;5083735;28;20525;-43
2022/03/02 10:04:35;;;;;;;22.40;15.52;;;8.00;93.60;;;;;;5082787;28;20114;-42
2022/03/02 10:10:01;;;;;;;20.02;13.93;;;8.10;93.50;;;;;;5082732;28;20054;-42
2022/03/02 10:12:30;;;;;;;20.60;12.43;;;8.10;93.50;;;;;;5082215;28;20024;-42
2022/03/02 10:14:55;;;;;;;16.25;11.52;;;8.10;93.40;;;;;;5083042;28;20020;-43
2022/03/02 10:17:21;;;;;;;20.15;14.07;;;8.20;93.50;;;;;;5080777;28;20023;-41
2022/03/02 10:19:54;;;;;;;20.42;14.52;;;8.20;93.30;;;;;;5084786;28;20012;-43
2022/03/02 10:22:36;;;;;;;22.38;14.60;;;8.20;93.10;;;;;;5078697;28;20028;-43
2022/03/02 10:25:08;;;;;;;20.73;13.90;;;8.30;93.10;;;;;;5085105;28;20047;-43
2022/03/02 10:27:51;;;;;;;22.65;14.68;;;8.30;93.10;;;;;;5079222;28;20027;-42
2022/03/02 10:30:18;;;;;;;20.75;14.02;;;8.30;93.10;;;;;;5083258;28;20035;-43
2022/03/02 10:32:48;;;;;;;19.13;13.68;;;8.40;93.10;;;;;;5080281;28;20032;-42
2022/03/02 10:35:13;;;;;;;22.98;14.88;;;8.40;93.10;;;;;;5084801;28;20383;-42
2022/03/02 10:37:51;;;;;;;21.35;14.75;;;8.40;93.10;;;;;;5077758;28;20035;-43
2022/03/02 10:40:20;;;;;;;26.20;18.50;;;8.50;92.90;;;;;;5086190;28;20024;-41
2022/03/02 10:42:59;;;;;;;22.90;15.93;;;8.50;92.60;;;;;;5076005;28;20035;-41
2022/03/02 10:45:27;;;;;;;20.48;14.43;;;8.50;92.40;;;;;;5085690;28;20035;-42
2022/03/02 10:48:11;;;;;;;25.25;16.23;;;8.50;92.60;;;;;;5075228;28;20881;-42
2022/03/02 10:50:39;;;;;;;22.63;15.38;;;8.60;92.50;;;;;;5085680;28;20509;-43
2022/03/02 10:53:11;;;;;;;23.88;15.95;;;8.60;92.40;;;;;;5075993;28;20024;-42
2022/03/02 10:55:39;;;;;;;19.55;14.52;;;8.70;92.10;;;;;;5084519;28;20217;-43
2022/03/02 10:58:05;;;;;;;21.08;14.40;;;8.70;92.10;;;;;;5075323;28;20038;-42
2022/03/02 11:00:33;;;;;;;23.45;14.85;;;8.70;92.20;;;;;;5085441;28;20012;-43
2022/03/02 11:02:59;;;;;;;21.40;15.00;;;8.80;92.30;;;;;;5077351;28;20025;-43
2022/03/02 11:05:28;;;;;;;19.00;13.30;;;8.80;92.20;;;;;;5066967;28;20699;-42
2022/03/02 11:07:54;;;;;;;17.95;13.25;;;8.90;92.20;;;;;;5079874;28;20148;-42
2022/03/02 11:10:22;;;;;;;18.55;12.45;;;9.00;92.20;;;;;;5066061;28;20075;-42
2022/03/02 11:12:49;;;;;;;18.35;12.90;;;9.00;92.10;;;;;;5079176;28;20036;-42
2022/03/02 11:15:17;;;;;;;22.60;15.82;;;9.00;92.10;;;;;;5066761;28;20074;-43
2022/03/02 11:17:58;;;;;;;19.67;14.07;;;9.00;91.90;;;;;;5077462;28;20066;-42
2022/03/02 11:20:25;;;;;;;19.90;14.57;;;9.00;91.80;;;;;;5066557;28;20044;-42
2022/03/02 11:22:53;;;;;;;22.42;15.48;;;9.10;91.90;;;;;;5077039;28;20039;-42
2022/03/02 11:25:18;;;;;;;24.10;15.60;;;9.10;91.70;;;;;;5067286;28;20503;-43
2022/03/02 11:27:45;;;;;;;23.77;15.98;;;9.20;91.10;;;;;;5075335;28;20032;-41
2022/03/02 11:30:15;;;;;;;21.80;15.68;;;9.20;91.10;;;;;;5070079;28;20031;-42
2022/03/02 11:32:43;;;;;;;17.40;13.18;;;9.20;91.00;;;;;;5072846;28;20577;-41
2022/03/02 11:35:13;;;;;;;18.75;13.20;;;9.20;91.00;;;;;;5072360;28;20028;-42
2022/03/02 11:37:38;;;;;;;17.13;12.05;;;9.30;91.00;;;;;;5070376;28;20020;-42
2022/03/02 11:40:10;;;;;;;18.05;13.38;;;9.30;90.80;;;;;;5074505;28;20488;-41
2022/03/02 11:42:46;;;;;;;19.90;12.88;;;9.30;90.50;;;;;;5069923;28;20027;-42
2022/03/02 11:45:12;;;;;;;20.13;12.75;;;9.40;90.60;;;;;;5074217;28;20036;-42
2022/03/02 11:47:41;;;;;;;19.55;14.10;;;9.50;90.60;;;;;;5067892;28;20384;-42
2022/03/02 11:50:11;;;;;;;18.10;13.20;;;9.50;90.00;;;;;;5071564;28;20036;-42
2022/03/02 11:52:46;;;;;;;17.77;11.52;;;9.50;90.00;;;;;;5067161;28;20770;-42
2022/03/02 11:55:16;;;;;;;18.33;12.80;;;9.60;90.10;;;;;;5075252;28;20154;-42
2022/03/02 11:57:48;;;;;;;18.52;13.35;;;9.60;89.90;;;;;;5084378;28;20037;-43
2022/03/02 12:00:16;;;;;;;17.10;12.68;;;9.60;89.50;;;;;;5074240;28;20555;-42
2022/03/02 12:02:45;;;;;;;15.93;11.85;;;9.70;88.80;;;;;;5084425;28;20035;-43
2022/03/02 12:05:11;;;;;;;16.67;11.90;;;9.70;89.50;;;;;;5073616;28;20043;-41
2022/03/02 12:07:43;;;;;;;14.20;11.23;;;9.80;89.00;;;;;;5085833;28;20055;-43
2022/03/02 12:10:28;;;;;;;13.83;11.33;;;9.80;89.20;;;;;;5073554;28;20036;-40
2022/03/02 12:12:55;;;;;;;17.25;12.55;;;9.90;89.00;;;;;;5084721;28;20016;-42
2022/03/02 12:15:23;;;;;;;15.95;12.20;;;9.90;88.80;;;;;;5074089;28;20156;-42
2022/03/02 12:17:50;;;;;;;16.48;11.48;;;9.90;88.60;;;;;;5086726;28;20039;-42
2022/03/02 12:20:19;;;;;;;15.57;11.05;;;10.00;88.60;;;;;;5071988;28;20541;-41
2022/03/02 12:22:48;;;;;;;16.83;12.15;;;10.00;88.30;;;;;;5086035;28;20031;-41
2022/03/02 12:25:17;;;;;;;16.67;11.75;;;10.00;87.60;;;;;;5071688;28;20028;-43
2022/03/02 12:27:58;;;;;;;14.90;11.38;;;10.10;87.70;;;;;;5085904;28;20106;-43
2022/03/02 12:30:24;;;;;;;16.85;12.38;;;10.10;87.40;;;;;;5072662;28;20029;-40
2022/03/02 12:32:52;;;;;;;17.08;11.93;;;10.10;87.40;;;;;;5085723;28;20498;-42
2022/03/02 12:35:22;;;;;;;19.80;14.15;;;10.20;87.50;;;;;;5073201;28;20570;-42
2022/03/02 12:37:48;;;;;;;19.33;14.43;;;10.20;85.30;;;;;;5084684;28;20020;-42
2022/03/02 12:40:13;;;;;;;20.05;14.13;;;10.20;85.20;;;;;;5075272;28;20105;-43